Terminal Aerodrome Forecast
Issued by NWS

Home | Current Version | Previous Version | Graphics & Text | Print | Product List | Glossary On
Versions: 1 2 3 4 5 6 7 8 9 10 11 12 13 14 15 16 17 18 19 20 21 22 23 24 25 26 27 28 29 30 31 32 33 34 35 36 37 38 39 40 41 42 43 44 45 46 47 48 49 50
000
FTUS43 KLOT 231100
TAFGYY
TAF
KGYY 231135Z 2312/2412 17010KT P6SM SCT025 OVC050 WS020/22040KT
     FM231400 17011KT 6SM BR VCSH SCT018 OVC030
     FM231700 16012G18KT 4SM BR VCSH SCT007 BKN015 OVC025
     FM232100 14012KT 2SM RA BR BKN007 OVC015
     FM240300 18010KT 2SM RA BR OVC004
     FM240600 20008KT 1 1/2SM -RA BR OVC004=

USA.gov is the U.S. government's official web portal to all federal, state and local government web resources and services.